TAF KEVW
KEVW 072320Z 0800/0824 23010KT P6SM FEW070 SCT090 FM081800 24020G30KT P6SM OVC040=
METAR KEVW
WC KEVW
WS KEVW
WV KEVW